Kaolack, Senegal
Current Conditions -  °F | °C
As of 8:00 AM on Friday 19 Dec 2014 (Local Time) from GBYD Reporting Station
Clear Clear  
Wind Chill: 66°   Ceiling: Unl
Heat Index: 66°   Visibility: 6mi
Dew Point: 39°   Wind: 8mph
Humidity: 37%   Direction: 80°E
Pressure: 29.91"   Gusts: NA
Location:  14.15°N, 16.1°W
Report Text: GBYD 190800Z 08007KT CAVOK 19/04 Q1013
Loading
Personal Weather Stations






























Interactive Weather Map New forecast layout! Learn more

10-Day Weather Forecast

Advertisements
Track Severe Weather on mobile